<?xml version="1.0" encoding="utf-8"?>
<gpx xmlns:xsi="http://www.w3.org/2001/XMLSchema-instance" xmlns:xsd="http://www.w3.org/2001/XMLSchema" version="1.1" creator="Shapelink.com" xmlns="http://www.topografix.com/GPX/1/1" xmlns:gpxtpx="http://www.garmin.com/xmlschemas/TrackPointExtension/v1">
  <metadata>
    <name>Cykling 12.36 km, 2019-05-05</name>
    <desc></desc>
    <author><name>Marian Moron</name></author> 
    <time>2019-05-05T12:50:54Z</time>
  </metadata>
  <trk>
    <name>Cykling 12.36 km, 2019-05-05</name>
    <trkseg>
      <trkpt lat="51.228564145752" lon="4.449192483326">
        <ele>0</ele>
        <time>2019-05-05T12:50:54Z</time>
      </trkpt>
      <trkpt lat="51.22888114921" lon="4.448695604294">
        <ele>0</ele>
        <time>2019-05-05T12:51:51Z</time>
      </trkpt>
      <trkpt lat="51.229072843263" lon="4.448443812018">
        <ele>0</ele>
        <time>2019-05-05T12:52:14Z</time>
      </trkpt>
      <trkpt lat="51.229064209906" lon="4.448322861201">
        <ele>0</ele>
        <time>2019-05-05T12:52:19Z</time>
      </trkpt>
      <trkpt lat="51.228830438715" lon="4.447916590508">
        <ele>0</ele>
        <time>2019-05-05T12:52:39Z</time>
      </trkpt>
      <trkpt lat="51.229219023599" lon="4.447320302142">
        <ele>0</ele>
        <time>2019-05-05T12:53:03Z</time>
      </trkpt>
      <trkpt lat="51.229579948213" lon="4.446659221689">
        <ele>0</ele>
        <time>2019-05-05T12:53:29Z</time>
      </trkpt>
      <trkpt lat="51.230012202796" lon="4.446098891674">
        <ele>0</ele>
        <time>2019-05-05T12:53:51Z</time>
      </trkpt>
      <trkpt lat="51.230070373182" lon="4.446039799279">
        <ele>0</ele>
        <time>2019-05-05T12:53:54Z</time>
      </trkpt>
      <trkpt lat="51.230340102724" lon="4.446789476415">
        <ele>0</ele>
        <time>2019-05-05T12:54:16Z</time>
      </trkpt>
      <trkpt lat="51.230562390712" lon="4.447604448552">
        <ele>0</ele>
        <time>2019-05-05T12:54:40Z</time>
      </trkpt>
      <trkpt lat="51.230807728925" lon="4.448408775676">
        <ele>0</ele>
        <time>2019-05-05T12:55:04Z</time>
      </trkpt>
      <trkpt lat="51.231022892298" lon="4.449210085316">
        <ele>1.4</ele>
        <time>2019-05-05T12:55:31Z</time>
      </trkpt>
      <trkpt lat="51.231203606062" lon="4.450055986664">
        <ele>1</ele>
        <time>2019-05-05T12:55:54Z</time>
      </trkpt>
      <trkpt lat="51.231275606583" lon="4.450408864654">
        <ele>2</ele>
        <time>2019-05-05T12:56:04Z</time>
      </trkpt>
      <trkpt lat="51.231400413074" lon="4.451250994147">
        <ele>0.6</ele>
        <time>2019-05-05T12:56:27Z</time>
      </trkpt>
      <trkpt lat="51.231535864578" lon="4.452096560219">
        <ele>0</ele>
        <time>2019-05-05T12:56:47Z</time>
      </trkpt>
      <trkpt lat="51.23164885259" lon="4.452977833185">
        <ele>0</ele>
        <time>2019-05-05T12:57:08Z</time>
      </trkpt>
      <trkpt lat="51.231798720962" lon="4.45382482418">
        <ele>0</ele>
        <time>2019-05-05T12:57:28Z</time>
      </trkpt>
      <trkpt lat="51.23194808642" lon="4.454670641709">
        <ele>0</ele>
        <time>2019-05-05T12:57:49Z</time>
      </trkpt>
      <trkpt lat="51.232105079407" lon="4.455519309084">
        <ele>0</ele>
        <time>2019-05-05T12:58:09Z</time>
      </trkpt>
      <trkpt lat="51.232262742946" lon="4.456375939264">
        <ele>0</ele>
        <time>2019-05-05T12:58:29Z</time>
      </trkpt>
      <trkpt lat="51.232419652114" lon="4.457023608677">
        <ele>0</ele>
        <time>2019-05-05T12:58:48Z</time>
      </trkpt>
      <trkpt lat="51.232408085092" lon="4.457017741347">
        <ele>0</ele>
        <time>2019-05-05T12:59:37Z</time>
      </trkpt>
      <trkpt lat="51.232409426196" lon="4.457025201238">
        <ele>0</ele>
        <time>2019-05-05T12:59:40Z</time>
      </trkpt>
      <trkpt lat="51.232548733374" lon="4.457898092304">
        <ele>0</ele>
        <time>2019-05-05T12:59:58Z</time>
      </trkpt>
      <trkpt lat="51.232692650597" lon="4.458735360295">
        <ele>0</ele>
        <time>2019-05-05T13:00:15Z</time>
      </trkpt>
      <trkpt lat="51.232831706318" lon="4.459574304666">
        <ele>0</ele>
        <time>2019-05-05T13:00:34Z</time>
      </trkpt>
      <trkpt lat="51.23296481089" lon="4.460429593742">
        <ele>0</ele>
        <time>2019-05-05T13:00:53Z</time>
      </trkpt>
      <trkpt lat="51.233100430032" lon="4.461286140103">
        <ele>0</ele>
        <time>2019-05-05T13:01:11Z</time>
      </trkpt>
      <trkpt lat="51.233250968956" lon="4.462138914609">
        <ele>0</ele>
        <time>2019-05-05T13:01:30Z</time>
      </trkpt>
      <trkpt lat="51.233372087411" lon="4.463001915033">
        <ele>0</ele>
        <time>2019-05-05T13:01:47Z</time>
      </trkpt>
      <trkpt lat="51.233508293286" lon="4.463832393685">
        <ele>0</ele>
        <time>2019-05-05T13:02:07Z</time>
      </trkpt>
      <trkpt lat="51.2335087962" lon="4.463814707876">
        <ele>0</ele>
        <time>2019-05-05T13:02:15Z</time>
      </trkpt>
      <trkpt lat="51.233500330481" lon="4.463814791695">
        <ele>0</ele>
        <time>2019-05-05T13:02:33Z</time>
      </trkpt>
      <trkpt lat="51.233551124795" lon="4.46379090328">
        <ele>0</ele>
        <time>2019-05-05T13:02:43Z</time>
      </trkpt>
      <trkpt lat="51.233693784733" lon="4.4637640812">
        <ele>0</ele>
        <time>2019-05-05T13:02:49Z</time>
      </trkpt>
      <trkpt lat="51.23387173247" lon="4.464566731944">
        <ele>2.2</ele>
        <time>2019-05-05T13:03:06Z</time>
      </trkpt>
      <trkpt lat="51.234046495085" lon="4.465404335211">
        <ele>2</ele>
        <time>2019-05-05T13:03:25Z</time>
      </trkpt>
      <trkpt lat="51.234163590228" lon="4.466259289011">
        <ele>0.4</ele>
        <time>2019-05-05T13:03:44Z</time>
      </trkpt>
      <trkpt lat="51.23429501842" lon="4.46713276681">
        <ele>0</ele>
        <time>2019-05-05T13:04:03Z</time>
      </trkpt>
      <trkpt lat="51.234441617851" lon="4.468010100283">
        <ele>0</ele>
        <time>2019-05-05T13:04:21Z</time>
      </trkpt>
      <trkpt lat="51.234566340523" lon="4.468875280001">
        <ele>0.4</ele>
        <time>2019-05-05T13:04:40Z</time>
      </trkpt>
      <trkpt lat="51.234631635524" lon="4.469227990353">
        <ele>1</ele>
        <time>2019-05-05T13:04:48Z</time>
      </trkpt>
      <trkpt lat="51.234662229459" lon="4.469398981113">
        <ele>1.8</ele>
        <time>2019-05-05T13:04:53Z</time>
      </trkpt>
      <trkpt lat="51.234688716263" lon="4.469410715773">
        <ele>1.6</ele>
        <time>2019-05-05T13:04:55Z</time>
      </trkpt>
      <trkpt lat="51.234708916642" lon="4.469280796323">
        <ele>2</ele>
        <time>2019-05-05T13:05:21Z</time>
      </trkpt>
      <trkpt lat="51.234703803683" lon="4.469090024279">
        <ele>4.4</ele>
        <time>2019-05-05T13:23:17Z</time>
      </trkpt>
      <trkpt lat="51.234638927777" lon="4.46935648488">
        <ele>3.2</ele>
        <time>2019-05-05T13:23:39Z</time>
      </trkpt>
      <trkpt lat="51.234639598329" lon="4.469469724349">
        <ele>4</ele>
        <time>2019-05-05T13:23:59Z</time>
      </trkpt>
      <trkpt lat="51.234810421451" lon="4.470290144721">
        <ele>4</ele>
        <time>2019-05-05T13:24:27Z</time>
      </trkpt>
      <trkpt lat="51.234940927634" lon="4.471155408258">
        <ele>2.4</ele>
        <time>2019-05-05T13:24:45Z</time>
      </trkpt>
      <trkpt lat="51.235058190415" lon="4.471993849715">
        <ele>0</ele>
        <time>2019-05-05T13:25:02Z</time>
      </trkpt>
      <trkpt lat="51.235220296361" lon="4.472843103823">
        <ele>0</ele>
        <time>2019-05-05T13:25:18Z</time>
      </trkpt>
      <trkpt lat="51.235394975157" lon="4.473667631326">
        <ele>0</ele>
        <time>2019-05-05T13:25:37Z</time>
      </trkpt>
      <trkpt lat="51.235603013915" lon="4.474502887661">
        <ele>0</ele>
        <time>2019-05-05T13:25:55Z</time>
      </trkpt>
      <trkpt lat="51.235783476222" lon="4.47533445596">
        <ele>0</ele>
        <time>2019-05-05T13:26:15Z</time>
      </trkpt>
      <trkpt lat="51.235956813914" lon="4.476165018431">
        <ele>0</ele>
        <time>2019-05-05T13:26:35Z</time>
      </trkpt>
      <trkpt lat="51.236149765252" lon="4.476987115183">
        <ele>0</ele>
        <time>2019-05-05T13:26:53Z</time>
      </trkpt>
      <trkpt lat="51.236293850113" lon="4.477831507789">
        <ele>0</ele>
        <time>2019-05-05T13:27:15Z</time>
      </trkpt>
      <trkpt lat="51.236385045185" lon="4.478692412738">
        <ele>0</ele>
        <time>2019-05-05T13:27:34Z</time>
      </trkpt>
      <trkpt lat="51.236418824242" lon="4.479564549433">
        <ele>0</ele>
        <time>2019-05-05T13:27:51Z</time>
      </trkpt>
      <trkpt lat="51.236375657457" lon="4.480448839883">
        <ele>0</ele>
        <time>2019-05-05T13:28:07Z</time>
      </trkpt>
      <trkpt lat="51.236342800409" lon="4.481338746206">
        <ele>0</ele>
        <time>2019-05-05T13:28:24Z</time>
      </trkpt>
      <trkpt lat="51.236298963072" lon="4.482220522086">
        <ele>0</ele>
        <time>2019-05-05T13:28:43Z</time>
      </trkpt>
      <trkpt lat="51.23629410157" lon="4.483129455322">
        <ele>0</ele>
        <time>2019-05-05T13:29:01Z</time>
      </trkpt>
      <trkpt lat="51.236303154022" lon="4.484025312794">
        <ele>0</ele>
        <time>2019-05-05T13:29:19Z</time>
      </trkpt>
      <trkpt lat="51.236307261153" lon="4.484891917435">
        <ele>0</ele>
        <time>2019-05-05T13:29:36Z</time>
      </trkpt>
      <trkpt lat="51.236334921423" lon="4.485748882891">
        <ele>0</ele>
        <time>2019-05-05T13:29:53Z</time>
      </trkpt>
      <trkpt lat="51.236342548952" lon="4.486643734535">
        <ele>0</ele>
        <time>2019-05-05T13:30:10Z</time>
      </trkpt>
      <trkpt lat="51.236369873946" lon="4.487522241474">
        <ele>0</ele>
        <time>2019-05-05T13:30:25Z</time>
      </trkpt>
      <trkpt lat="51.236386637746" lon="4.488403179164">
        <ele>0</ele>
        <time>2019-05-05T13:30:39Z</time>
      </trkpt>
      <trkpt lat="51.236408598324" lon="4.489318985558">
        <ele>0</ele>
        <time>2019-05-05T13:30:54Z</time>
      </trkpt>
      <trkpt lat="51.236404994107" lon="4.489384112921">
        <ele>0</ele>
        <time>2019-05-05T13:30:55Z</time>
      </trkpt>
      <trkpt lat="51.236363000788" lon="4.490192044262">
        <ele>0</ele>
        <time>2019-05-05T13:31:10Z</time>
      </trkpt>
      <trkpt lat="51.236311452103" lon="4.490189948787">
        <ele>0</ele>
        <time>2019-05-05T13:31:25Z</time>
      </trkpt>
      <trkpt lat="51.236063850777" lon="4.489730620667">
        <ele>0</ele>
        <time>2019-05-05T13:31:41Z</time>
      </trkpt>
      <trkpt lat="51.235965950185" lon="4.489727687002">
        <ele>0</ele>
        <time>2019-05-05T13:31:45Z</time>
      </trkpt>
      <trkpt lat="51.235597146585" lon="4.489093680086">
        <ele>0</ele>
        <time>2019-05-05T13:32:04Z</time>
      </trkpt>
      <trkpt lat="51.235230270822" lon="4.488440646257">
        <ele>0</ele>
        <time>2019-05-05T13:32:20Z</time>
      </trkpt>
      <trkpt lat="51.234858114462" lon="4.487776045406">
        <ele>0</ele>
        <time>2019-05-05T13:32:36Z</time>
      </trkpt>
      <trkpt lat="51.23450456592" lon="4.487116222238">
        <ele>0</ele>
        <time>2019-05-05T13:32:51Z</time>
      </trkpt>
      <trkpt lat="51.234151436473" lon="4.48643963527">
        <ele>0</ele>
        <time>2019-05-05T13:33:08Z</time>
      </trkpt>
      <trkpt lat="51.233809874048" lon="4.485696831292">
        <ele>0</ele>
        <time>2019-05-05T13:33:25Z</time>
      </trkpt>
      <trkpt lat="51.233414248368" lon="4.485083192393">
        <ele>0</ele>
        <time>2019-05-05T13:33:40Z</time>
      </trkpt>
      <trkpt lat="51.233045863863" lon="4.484407359796">
        <ele>0</ele>
        <time>2019-05-05T13:33:56Z</time>
      </trkpt>
      <trkpt lat="51.232664319775" lon="4.483733455036">
        <ele>0</ele>
        <time>2019-05-05T13:34:12Z</time>
      </trkpt>
      <trkpt lat="51.232215971944" lon="4.4832939082">
        <ele>0</ele>
        <time>2019-05-05T13:34:29Z</time>
      </trkpt>
      <trkpt lat="51.231653965549" lon="4.483290471621">
        <ele>1.6</ele>
        <time>2019-05-05T13:34:46Z</time>
      </trkpt>
      <trkpt lat="51.231097658846" lon="4.483267169939">
        <ele>6.4</ele>
        <time>2019-05-05T13:35:03Z</time>
      </trkpt>
      <trkpt lat="51.230545543093" lon="4.483195337056">
        <ele>6.2</ele>
        <time>2019-05-05T13:35:19Z</time>
      </trkpt>
      <trkpt lat="51.230341946742" lon="4.483137250489">
        <ele>3.4</ele>
        <time>2019-05-05T13:35:28Z</time>
      </trkpt>
      <trkpt lat="51.230348233167" lon="4.483168431157">
        <ele>6</ele>
        <time>2019-05-05T13:38:34Z</time>
      </trkpt>
      <trkpt lat="51.230326943141" lon="4.483157031773">
        <ele>6</ele>
        <time>2019-05-05T13:38:41Z</time>
      </trkpt>
      <trkpt lat="51.229789411894" lon="4.483006911944">
        <ele>8</ele>
        <time>2019-05-05T13:38:58Z</time>
      </trkpt>
      <trkpt lat="51.229361515899" lon="4.482866179843">
        <ele>8.6</ele>
        <time>2019-05-05T13:39:09Z</time>
      </trkpt>
      <trkpt lat="51.228826080127" lon="4.48272226262">
        <ele>3</ele>
        <time>2019-05-05T13:39:29Z</time>
      </trkpt>
      <trkpt lat="51.228280502256" lon="4.482688902658">
        <ele>5</ele>
        <time>2019-05-05T13:39:47Z</time>
      </trkpt>
      <trkpt lat="51.227738360964" lon="4.48277842135">
        <ele>13.4</ele>
        <time>2019-05-05T13:40:02Z</time>
      </trkpt>
      <trkpt lat="51.227213570205" lon="4.482423615523">
        <ele>8.6</ele>
        <time>2019-05-05T13:40:18Z</time>
      </trkpt>
      <trkpt lat="51.226743680891" lon="4.481937800599">
        <ele>5</ele>
        <time>2019-05-05T13:40:33Z</time>
      </trkpt>
      <trkpt lat="51.226279658907" lon="4.481435221875">
        <ele>3</ele>
        <time>2019-05-05T13:40:48Z</time>
      </trkpt>
      <trkpt lat="51.225807674118" lon="4.48095619629">
        <ele>2.2</ele>
        <time>2019-05-05T13:41:04Z</time>
      </trkpt>
      <trkpt lat="51.225344071229" lon="4.480548165398">
        <ele>1.8</ele>
        <time>2019-05-05T13:41:21Z</time>
      </trkpt>
      <trkpt lat="51.225042490467" lon="4.480584375206">
        <ele>0</ele>
        <time>2019-05-05T13:41:35Z</time>
      </trkpt>
      <trkpt lat="51.224508144342" lon="4.480624692145">
        <ele>0</ele>
        <time>2019-05-05T13:41:54Z</time>
      </trkpt>
      <trkpt lat="51.22394253373" lon="4.480788139195">
        <ele>0</ele>
        <time>2019-05-05T13:42:11Z</time>
      </trkpt>
      <trkpt lat="51.223385221199" lon="4.481020569282">
        <ele>1.2</ele>
        <time>2019-05-05T13:42:26Z</time>
      </trkpt>
      <trkpt lat="51.222848360504" lon="4.481150153456">
        <ele>0.6</ele>
        <time>2019-05-05T13:42:40Z</time>
      </trkpt>
      <trkpt lat="51.222318205329" lon="4.48098385656">
        <ele>1.2</ele>
        <time>2019-05-05T13:42:55Z</time>
      </trkpt>
      <trkpt lat="51.221845633807" lon="4.4804859717">
        <ele>0</ele>
        <time>2019-05-05T13:43:12Z</time>
      </trkpt>
      <trkpt lat="51.221670368278" lon="4.479913320292">
        <ele>0</ele>
        <time>2019-05-05T13:43:27Z</time>
      </trkpt>
      <trkpt lat="51.221689227553" lon="4.479913571749">
        <ele>0</ele>
        <time>2019-05-05T13:43:48Z</time>
      </trkpt>
      <trkpt lat="51.221686880621" lon="4.479896221216">
        <ele>0</ele>
        <time>2019-05-05T13:43:53Z</time>
      </trkpt>
      <trkpt lat="51.221613371358" lon="4.47971902785">
        <ele>0</ele>
        <time>2019-05-05T13:44:07Z</time>
      </trkpt>
      <trkpt lat="51.221603648354" lon="4.479693798331">
        <ele>0</ele>
        <time>2019-05-05T13:44:09Z</time>
      </trkpt>
      <trkpt lat="51.221275999883" lon="4.479028862204">
        <ele>0</ele>
        <time>2019-05-05T13:44:30Z</time>
      </trkpt>
      <trkpt lat="51.221044156529" lon="4.479762110816">
        <ele>0</ele>
        <time>2019-05-05T13:44:49Z</time>
      </trkpt>
      <trkpt lat="51.220545936393" lon="4.480103673241">
        <ele>0</ele>
        <time>2019-05-05T13:45:08Z</time>
      </trkpt>
      <trkpt lat="51.220027683516" lon="4.480393686981">
        <ele>1.4</ele>
        <time>2019-05-05T13:45:24Z</time>
      </trkpt>
      <trkpt lat="51.219543377334" lon="4.480542046611">
        <ele>0.6</ele>
        <time>2019-05-05T13:45:39Z</time>
      </trkpt>
      <trkpt lat="51.219558129478" lon="4.480533329435">
        <ele>1</ele>
        <time>2019-05-05T13:45:56Z</time>
      </trkpt>
      <trkpt lat="51.219561817514" lon="4.480534335263">
        <ele>2.4</ele>
        <time>2019-05-05T13:46:04Z</time>
      </trkpt>
      <trkpt lat="51.219567265749" lon="4.480523271155">
        <ele>4.8</ele>
        <time>2019-05-05T13:46:17Z</time>
      </trkpt>
      <trkpt lat="51.219526026801" lon="4.48054380681">
        <ele>5.8</ele>
        <time>2019-05-05T13:46:23Z</time>
      </trkpt>
      <trkpt lat="51.219010288494" lon="4.480896852438">
        <ele>4.8</ele>
        <time>2019-05-05T13:46:41Z</time>
      </trkpt>
      <trkpt lat="51.218634444098" lon="4.4810810866">
        <ele>4.2</ele>
        <time>2019-05-05T13:46:50Z</time>
      </trkpt>
      <trkpt lat="51.218350632964" lon="4.481227686031">
        <ele>3.6</ele>
        <time>2019-05-05T13:46:57Z</time>
      </trkpt>
      <trkpt lat="51.21826463467" lon="4.481250987713">
        <ele>3.4</ele>
        <time>2019-05-05T13:46:59Z</time>
      </trkpt>
      <trkpt lat="51.218134547582" lon="4.481329442297">
        <ele>3</ele>
        <time>2019-05-05T13:47:02Z</time>
      </trkpt>
      <trkpt lat="51.218041340854" lon="4.481357940757">
        <ele>2.8</ele>
        <time>2019-05-05T13:47:04Z</time>
      </trkpt>
      <trkpt lat="51.217499702476" lon="4.481627670299">
        <ele>1.8</ele>
        <time>2019-05-05T13:47:17Z</time>
      </trkpt>
      <trkpt lat="51.217249502761" lon="4.481736802637">
        <ele>1</ele>
        <time>2019-05-05T13:47:23Z</time>
      </trkpt>
      <trkpt lat="51.217170712901" lon="4.481787429313">
        <ele>0.8</ele>
        <time>2019-05-05T13:47:25Z</time>
      </trkpt>
      <trkpt lat="51.217016150665" lon="4.481757422111">
        <ele>0.6</ele>
        <time>2019-05-05T13:47:29Z</time>
      </trkpt>
      <trkpt lat="51.216977845382" lon="4.481654324741">
        <ele>0.2</ele>
        <time>2019-05-05T13:47:31Z</time>
      </trkpt>
      <trkpt lat="51.217039703804" lon="4.480750672102">
        <ele>0</ele>
        <time>2019-05-05T13:47:47Z</time>
      </trkpt>
      <trkpt lat="51.217104328253" lon="4.480112641874">
        <ele>0</ele>
        <time>2019-05-05T13:47:56Z</time>
      </trkpt>
      <trkpt lat="51.21716744396" lon="4.479234134935">
        <ele>0</ele>
        <time>2019-05-05T13:48:09Z</time>
      </trkpt>
      <trkpt lat="51.217183201932" lon="4.478325704613">
        <ele>0</ele>
        <time>2019-05-05T13:48:25Z</time>
      </trkpt>
      <trkpt lat="51.21723617554" lon="4.477456669221">
        <ele>0</ele>
        <time>2019-05-05T13:48:40Z</time>
      </trkpt>
      <trkpt lat="51.21727221771" lon="4.476570450934">
        <ele>0</ele>
        <time>2019-05-05T13:48:58Z</time>
      </trkpt>
      <trkpt lat="51.217316557961" lon="4.475656656196">
        <ele>0</ele>
        <time>2019-05-05T13:49:12Z</time>
      </trkpt>
      <trkpt lat="51.217360730574" lon="4.474147495101">
        <ele>0</ele>
        <time>2019-05-05T13:49:37Z</time>
      </trkpt>
      <trkpt lat="51.217376907641" lon="4.47327083218">
        <ele>0</ele>
        <time>2019-05-05T13:49:50Z</time>
      </trkpt>
      <trkpt lat="51.217381685324" lon="4.472349829008">
        <ele>0</ele>
        <time>2019-05-05T13:50:04Z</time>
      </trkpt>
      <trkpt lat="51.217452009465" lon="4.471492695914">
        <ele>0</ele>
        <time>2019-05-05T13:50:16Z</time>
      </trkpt>
      <trkpt lat="51.217519567579" lon="4.47063975377">
        <ele>0</ele>
        <time>2019-05-05T13:50:30Z</time>
      </trkpt>
      <trkpt lat="51.217520992502" lon="4.469740292081">
        <ele>0</ele>
        <time>2019-05-05T13:50:43Z</time>
      </trkpt>
      <trkpt lat="51.217470365826" lon="4.468943843943">
        <ele>0</ele>
        <time>2019-05-05T13:50:59Z</time>
      </trkpt>
      <trkpt lat="51.217412865992" lon="4.468944598314">
        <ele>0</ele>
        <time>2019-05-05T13:51:01Z</time>
      </trkpt>
      <trkpt lat="51.216956890632" lon="4.469428485401">
        <ele>0</ele>
        <time>2019-05-05T13:51:17Z</time>
      </trkpt>
      <trkpt lat="51.216447019655" lon="4.469251292035">
        <ele>0</ele>
        <time>2019-05-05T13:51:32Z</time>
      </trkpt>
      <trkpt lat="51.215929353511" lon="4.468974521697">
        <ele>0</ele>
        <time>2019-05-05T13:51:49Z</time>
      </trkpt>
      <trkpt lat="51.215673370285" lon="4.468425171971">
        <ele>0</ele>
        <time>2019-05-05T13:52:04Z</time>
      </trkpt>
      <trkpt lat="51.215131396631" lon="4.46830455643">
        <ele>0</ele>
        <time>2019-05-05T13:52:21Z</time>
      </trkpt>
      <trkpt lat="51.214712804545" lon="4.467902057592">
        <ele>0</ele>
        <time>2019-05-05T13:52:36Z</time>
      </trkpt>
      <trkpt lat="51.21476016228" lon="4.467088678016">
        <ele>0</ele>
        <time>2019-05-05T13:52:52Z</time>
      </trkpt>
      <trkpt lat="51.214333607389" lon="4.466564809266">
        <ele>0</ele>
        <time>2019-05-05T13:53:05Z</time>
      </trkpt>
      <trkpt lat="51.213863215161" lon="4.466296420828">
        <ele>0</ele>
        <time>2019-05-05T13:53:15Z</time>
      </trkpt>
      <trkpt lat="51.213792555744" lon="4.466205393394">
        <ele>0</ele>
        <time>2019-05-05T13:53:17Z</time>
      </trkpt>
      <trkpt lat="51.213549145368" lon="4.466117802539">
        <ele>0</ele>
        <time>2019-05-05T13:53:24Z</time>
      </trkpt>
      <trkpt lat="51.213468008576" lon="4.466186534119">
        <ele>0</ele>
        <time>2019-05-05T13:53:26Z</time>
      </trkpt>
      <trkpt lat="51.213345716655" lon="4.466177062572">
        <ele>0</ele>
        <time>2019-05-05T13:53:29Z</time>
      </trkpt>
      <trkpt lat="51.213442024686" lon="4.465486896926">
        <ele>0</ele>
        <time>2019-05-05T13:53:43Z</time>
      </trkpt>
      <trkpt lat="51.21396136721" lon="4.465175760798">
        <ele>0</ele>
        <time>2019-05-05T13:54:04Z</time>
      </trkpt>
      <trkpt lat="51.214512393316" lon="4.465000579088">
        <ele>0</ele>
        <time>2019-05-05T13:54:19Z</time>
      </trkpt>
      <trkpt lat="51.215017318972" lon="4.464659519577">
        <ele>0</ele>
        <time>2019-05-05T13:54:32Z</time>
      </trkpt>
      <trkpt lat="51.215500870783" lon="4.464179739621">
        <ele>0</ele>
        <time>2019-05-05T13:54:45Z</time>
      </trkpt>
      <trkpt lat="51.215595502434" lon="4.464138835949">
        <ele>0</ele>
        <time>2019-05-05T13:54:47Z</time>
      </trkpt>
      <trkpt lat="51.215690972275" lon="4.464141434338">
        <ele>0</ele>
        <time>2019-05-05T13:54:49Z</time>
      </trkpt>
      <trkpt lat="51.216022560239" lon="4.463897856324">
        <ele>0</ele>
        <time>2019-05-05T13:55:01Z</time>
      </trkpt>
      <trkpt lat="51.215808905608" lon="4.463112975208">
        <ele>0</ele>
        <time>2019-05-05T13:55:17Z</time>
      </trkpt>
      <trkpt lat="51.215663647281" lon="4.462905271726">
        <ele>0</ele>
        <time>2019-05-05T13:55:24Z</time>
      </trkpt>
      <trkpt lat="51.215684434393" lon="4.462853303946">
        <ele>0</ele>
        <time>2019-05-05T13:55:26Z</time>
      </trkpt>
      <trkpt lat="51.216199669786" lon="4.46251014896">
        <ele>0</ele>
        <time>2019-05-05T13:55:43Z</time>
      </trkpt>
      <trkpt lat="51.216713647894" lon="4.462149224346">
        <ele>0</ele>
        <time>2019-05-05T13:55:56Z</time>
      </trkpt>
      <trkpt lat="51.217227039269" lon="4.461807578102">
        <ele>0</ele>
        <time>2019-05-05T13:56:08Z</time>
      </trkpt>
      <trkpt lat="51.217723247749" lon="4.461455873578">
        <ele>0</ele>
        <time>2019-05-05T13:56:21Z</time>
      </trkpt>
      <trkpt lat="51.217856855235" lon="4.461273734891">
        <ele>0</ele>
        <time>2019-05-05T13:56:35Z</time>
      </trkpt>
      <trkpt lat="51.21795953351" lon="4.460432527407">
        <ele>0</ele>
        <time>2019-05-05T13:56:54Z</time>
      </trkpt>
      <trkpt lat="51.21799222292" lon="4.459524851456">
        <ele>0</ele>
        <time>2019-05-05T13:57:09Z</time>
      </trkpt>
      <trkpt lat="51.218011920385" lon="4.458634945133">
        <ele>0</ele>
        <time>2019-05-05T13:57:24Z</time>
      </trkpt>
      <trkpt lat="51.218005298684" lon="4.457757108746">
        <ele>0</ele>
        <time>2019-05-05T13:57:37Z</time>
      </trkpt>
      <trkpt lat="51.218122310008" lon="4.456845074207">
        <ele>0</ele>
        <time>2019-05-05T13:57:48Z</time>
      </trkpt>
      <trkpt lat="51.218139073808" lon="4.456530333862">
        <ele>0</ele>
        <time>2019-05-05T13:57:52Z</time>
      </trkpt>
      <trkpt lat="51.218160615291" lon="4.455624921024">
        <ele>0</ele>
        <time>2019-05-05T13:58:04Z</time>
      </trkpt>
      <trkpt lat="51.218167488449" lon="4.455542024033">
        <ele>0</ele>
        <time>2019-05-05T13:58:05Z</time>
      </trkpt>
      <trkpt lat="51.2181950649" lon="4.454883541969">
        <ele>0</ele>
        <time>2019-05-05T13:58:13Z</time>
      </trkpt>
      <trkpt lat="51.218229263052" lon="4.454024983952">
        <ele>0</ele>
        <time>2019-05-05T13:58:26Z</time>
      </trkpt>
      <trkpt lat="51.218254911666" lon="4.453631453747">
        <ele>0</ele>
        <time>2019-05-05T13:58:35Z</time>
      </trkpt>
      <trkpt lat="51.218656320857" lon="4.453266422002">
        <ele>0</ele>
        <time>2019-05-05T13:58:51Z</time>
      </trkpt>
      <trkpt lat="51.218857402638" lon="4.453715272747">
        <ele>0</ele>
        <time>2019-05-05T13:59:01Z</time>
      </trkpt>
      <trkpt lat="51.218917165585" lon="4.453873103924">
        <ele>0</ele>
        <time>2019-05-05T13:59:04Z</time>
      </trkpt>
      <trkpt lat="51.218979778378" lon="4.453889783905">
        <ele>0</ele>
        <time>2019-05-05T13:59:06Z</time>
      </trkpt>
      <trkpt lat="51.219252357766" lon="4.453660119845">
        <ele>0</ele>
        <time>2019-05-05T13:59:16Z</time>
      </trkpt>
      <trkpt lat="51.219399711568" lon="4.453881988738">
        <ele>0</ele>
        <time>2019-05-05T13:59:27Z</time>
      </trkpt>
      <trkpt lat="51.219405997993" lon="4.453854747563">
        <ele>0</ele>
        <time>2019-05-05T13:59:43Z</time>
      </trkpt>
      <trkpt lat="51.219455283565" lon="4.453802528326">
        <ele>0</ele>
        <time>2019-05-05T13:59:49Z</time>
      </trkpt>
      <trkpt lat="51.219486212776" lon="4.453729102882">
        <ele>0</ele>
        <time>2019-05-05T13:59:52Z</time>
      </trkpt>
      <trkpt lat="51.219300469872" lon="4.453182519183">
        <ele>0</ele>
        <time>2019-05-05T14:00:03Z</time>
      </trkpt>
      <trkpt lat="51.219261745494" lon="4.453061652185">
        <ele>0</ele>
        <time>2019-05-05T14:00:05Z</time>
      </trkpt>
      <trkpt lat="51.219028644855" lon="4.45233787512">
        <ele>1</ele>
        <time>2019-05-05T14:00:21Z</time>
      </trkpt>
      <trkpt lat="51.219120342841" lon="4.452104271567">
        <ele>0</ele>
        <time>2019-05-05T14:00:26Z</time>
      </trkpt>
      <trkpt lat="51.219668770558" lon="4.452025649345">
        <ele>0</ele>
        <time>2019-05-05T14:00:45Z</time>
      </trkpt>
      <trkpt lat="51.220242092518" lon="4.451928754581">
        <ele>0</ele>
        <time>2019-05-05T14:01:02Z</time>
      </trkpt>
      <trkpt lat="51.220797225755" lon="4.451817107673">
        <ele>0</ele>
        <time>2019-05-05T14:01:16Z</time>
      </trkpt>
      <trkpt lat="51.221343474178" lon="4.45169749796">
        <ele>0</ele>
        <time>2019-05-05T14:01:30Z</time>
      </trkpt>
      <trkpt lat="51.221886788936" lon="4.45141335155">
        <ele>0</ele>
        <time>2019-05-05T14:01:41Z</time>
      </trkpt>
      <trkpt lat="51.222412417885" lon="4.451123673086">
        <ele>0</ele>
        <time>2019-05-05T14:01:53Z</time>
      </trkpt>
      <trkpt lat="51.22297023333" lon="4.45112166143">
        <ele>0</ele>
        <time>2019-05-05T14:02:07Z</time>
      </trkpt>
      <trkpt lat="51.22351505683" lon="4.451296675502">
        <ele>0</ele>
        <time>2019-05-05T14:02:22Z</time>
      </trkpt>
      <trkpt lat="51.224057701036" lon="4.451325593057">
        <ele>0</ele>
        <time>2019-05-05T14:02:38Z</time>
      </trkpt>
      <trkpt lat="51.224481322262" lon="4.450763335205">
        <ele>0</ele>
        <time>2019-05-05T14:02:53Z</time>
      </trkpt>
      <trkpt lat="51.224872673173" lon="4.45015355198">
        <ele>0</ele>
        <time>2019-05-05T14:03:07Z</time>
      </trkpt>
      <trkpt lat="51.225347843084" lon="4.449721129759">
        <ele>0</ele>
        <time>2019-05-05T14:03:25Z</time>
      </trkpt>
      <trkpt lat="51.225885961064" lon="4.44959699382">
        <ele>0</ele>
        <time>2019-05-05T14:03:41Z</time>
      </trkpt>
      <trkpt lat="51.226269013894" lon="4.448965082379">
        <ele>0</ele>
        <time>2019-05-05T14:03:58Z</time>
      </trkpt>
      <trkpt lat="51.22652415893" lon="4.448198138529">
        <ele>0</ele>
        <time>2019-05-05T14:04:14Z</time>
      </trkpt>
      <trkpt lat="51.226933698564" lon="4.447585086363">
        <ele>0</ele>
        <time>2019-05-05T14:04:30Z</time>
      </trkpt>
      <trkpt lat="51.227359163808" lon="4.446975303138">
        <ele>0</ele>
        <time>2019-05-05T14:04:45Z</time>
      </trkpt>
      <trkpt lat="51.227759986266" lon="4.446370884329">
        <ele>0</ele>
        <time>2019-05-05T14:05:01Z</time>
      </trkpt>
      <trkpt lat="51.228174890316" lon="4.445778954551">
        <ele>0</ele>
        <time>2019-05-05T14:05:16Z</time>
      </trkpt>
      <trkpt lat="51.228466748074" lon="4.445019386773">
        <ele>0</ele>
        <time>2019-05-05T14:05:31Z</time>
      </trkpt>
      <trkpt lat="51.228791043785" lon="4.444338692674">
        <ele>0</ele>
        <time>2019-05-05T14:05:46Z</time>
      </trkpt>
      <trkpt lat="51.229272332483" lon="4.44388053802">
        <ele>0</ele>
        <time>2019-05-05T14:06:02Z</time>
      </trkpt>
      <trkpt lat="51.229474252454" lon="4.443848100067">
        <ele>0</ele>
        <time>2019-05-05T14:06:08Z</time>
      </trkpt>
      <trkpt lat="51.229507696235" lon="4.443928147212">
        <ele>0</ele>
        <time>2019-05-05T14:06:10Z</time>
      </trkpt>
      <trkpt lat="51.229732666431" lon="4.444736665286">
        <ele>0</ele>
        <time>2019-05-05T14:06:28Z</time>
      </trkpt>
      <trkpt lat="51.229701904858" lon="4.444875218093">
        <ele>0</ele>
        <time>2019-05-05T14:06:32Z</time>
      </trkpt>
      <trkpt lat="51.229317510924" lon="4.44552339042">
        <ele>0</ele>
        <time>2019-05-05T14:06:49Z</time>
      </trkpt>
      <trkpt lat="51.228957843595" lon="4.446185728158">
        <ele>1.4</ele>
        <time>2019-05-05T14:07:07Z</time>
      </trkpt>
      <trkpt lat="51.228596583705" lon="4.446851502475">
        <ele>5.8</ele>
        <time>2019-05-05T14:07:24Z</time>
      </trkpt>
      <trkpt lat="51.228152510643" lon="4.4474277581">
        <ele>13</ele>
        <time>2019-05-05T14:07:39Z</time>
      </trkpt>
      <trkpt lat="51.227769373994" lon="4.448087916544">
        <ele>7.4</ele>
        <time>2019-05-05T14:07:55Z</time>
      </trkpt>
      <trkpt lat="51.227347680605" lon="4.448665597092">
        <ele>1.6</ele>
        <time>2019-05-05T14:08:13Z</time>
      </trkpt>
      <trkpt lat="51.227016092641" lon="4.449372694176">
        <ele>0</ele>
        <time>2019-05-05T14:08:30Z</time>
      </trkpt>
      <trkpt lat="51.227010895863" lon="4.449528429878">
        <ele>0</ele>
        <time>2019-05-05T14:08:34Z</time>
      </trkpt>
      <trkpt lat="51.226967058526" lon="4.450395621252">
        <ele>0</ele>
        <time>2019-05-05T14:08:52Z</time>
      </trkpt>
      <trkpt lat="51.226911235072" lon="4.451258118762">
        <ele>0</ele>
        <time>2019-05-05T14:09:07Z</time>
      </trkpt>
      <trkpt lat="51.226875863454" lon="4.452123047023">
        <ele>0</ele>
        <time>2019-05-05T14:09:24Z</time>
      </trkpt>
      <trkpt lat="51.226820291457" lon="4.452988226741">
        <ele>0</ele>
        <time>2019-05-05T14:09:40Z</time>
      </trkpt>
      <trkpt lat="51.226860440758" lon="4.45343674221">
        <ele>0</ele>
        <time>2019-05-05T14:09:50Z</time>
      </trkpt>
      <trkpt lat="51.226903272267" lon="4.453377817453">
        <ele>0</ele>
        <time>2019-05-05T14:09:53Z</time>
      </trkpt>
      <trkpt lat="51.227397217634" lon="4.452955118236">
        <ele>0</ele>
        <time>2019-05-05T14:10:11Z</time>
      </trkpt>
      <trkpt lat="51.227922930402" lon="4.452643730651">
        <ele>12.8</ele>
        <time>2019-05-05T14:10:26Z</time>
      </trkpt>
      <trkpt lat="51.228970751721" lon="4.452096560219">
        <ele>26.6</ele>
        <time>2019-05-05T14:10:58Z</time>
      </trkpt>
      <trkpt lat="51.22916864838" lon="4.452031600494">
        <ele>22.4</ele>
        <time>2019-05-05T14:11:05Z</time>
      </trkpt>
      <trkpt lat="51.228960358165" lon="4.451296759321">
        <ele>0.2</ele>
        <time>2019-05-05T14:11:26Z</time>
      </trkpt>
      <trkpt lat="51.228626590907" lon="4.450632912841">
        <ele>0</ele>
        <time>2019-05-05T14:11:47Z</time>
      </trkpt>
      <trkpt lat="51.228274048193" lon="4.449971497112">
        <ele>0</ele>
        <time>2019-05-05T14:12:07Z</time>
      </trkpt>
      <trkpt lat="51.22790214329" lon="4.449295077782">
        <ele>0</ele>
        <time>2019-05-05T14:12:28Z</time>
      </trkpt>
      <trkpt lat="51.227884122205" lon="4.449225759469">
        <ele>0</ele>
        <time>2019-05-05T14:12:30Z</time>
      </trkpt>
      <trkpt lat="51.228281759541" lon="4.448611114742">
        <ele>0</ele>
        <time>2019-05-05T14:12:48Z</time>
      </trkpt>
      <trkpt lat="51.228687946415" lon="4.448044833578">
        <ele>5.4</ele>
        <time>2019-05-05T14:13:05Z</time>
      </trkpt>
      <trkpt lat="51.228858685718" lon="4.447921871105">
        <ele>9.2</ele>
        <time>2019-05-05T14:13:11Z</time>
      </trkpt>
      <trkpt lat="51.229066640657" lon="4.448452529194">
        <ele>0</ele>
        <time>2019-05-05T14:13:26Z</time>
      </trkpt>
      <trkpt lat="51.228858853356" lon="4.448713793017">
        <ele>0</ele>
        <time>2019-05-05T14:13:40Z</time>
      </trkpt>
      <trkpt lat="51.228885843074" lon="4.448668782214">
        <ele>0</ele>
        <time>2019-05-05T14:14:13Z</time>
      </trkpt>
      <trkpt lat="51.228865642695" lon="4.448706333126">
        <ele>0</ele>
        <time>2019-05-05T14:14:17Z</time>
      </trkpt>
      <trkpt lat="51.228476638716" lon="4.449237494129">
        <ele>0</ele>
        <time>2019-05-05T14:14:35Z</time>
      </trkpt>
      <trkpt lat="51.228504298986" lon="4.449188962928">
        <ele>0</ele>
        <time>2019-05-05T14:14:39Z</time>
      </trkpt>
      <trkpt lat="51.228532881265" lon="4.4491460476">
        <ele>0</ele>
        <time>2019-05-05T14:14:42Z</time>
      </trkpt>
      <trkpt lat="51.228776291641" lon="4.448808843763">
        <ele>0</ele>
        <time>2019-05-05T14:14:53Z</time>
      </trkpt>
      <trkpt lat="51.228785930826" lon="4.448883275035">
        <ele>0</ele>
        <time>2019-05-05T14:14:55Z</time>
      </trkpt>
      <trkpt lat="51.228473285956" lon="4.449280158">
        <ele>0</ele>
        <time>2019-05-05T14:15:09Z</time>
      </trkpt>
    </trkseg>
  </trk>
</gpx>